createdAt,value
2022-08-26T00:02:12.986Z,5.03
2022-08-26T00:04:40.992Z,4.45
2022-08-26T00:07:08.933Z,3.78
2022-08-26T00:09:40.231Z,4.93
2022-08-26T00:12:09.423Z,3.85
2022-08-26T00:14:40.744Z,5.60
2022-08-26T00:17:10.259Z,5.47
2022-08-26T00:19:38.505Z,4.10
2022-08-26T00:22:06.517Z,4.15
2022-08-26T00:24:36.443Z,4.75
2022-08-26T00:27:06.472Z,5.10
2022-08-26T00:29:35.644Z,4.32
2022-08-26T00:32:08.895Z,4.60
2022-08-26T00:34:40.937Z,6.15
2022-08-26T00:37:15.675Z,4.97
2022-08-26T00:39:44.210Z,4.05
2022-08-26T00:42:14.060Z,4.45
2022-08-26T00:44:42.152Z,4.32
2022-08-26T00:47:15.079Z,3.88
2022-08-26T00:49:51.455Z,5.20
2022-08-26T00:52:22.654Z,4.32
2022-08-26T00:54:54.850Z,4.45
2022-08-26T00:57:25.906Z,7.60
2022-08-26T00:59:58.738Z,4.43
2022-08-26T01:02:28.873Z,4.47
2022-08-26T01:05:01.376Z,6.13
2022-08-26T01:07:33.123Z,6.32
2022-08-26T01:10:09.944Z,6.35
2022-08-26T01:12:42.040Z,4.78
2022-08-26T01:15:14.313Z,4.78
2022-08-26T01:17:43.841Z,4.40
2022-08-26T01:20:22.746Z,5.18
2022-08-26T01:22:57.627Z,7.70
2022-08-26T01:25:28.360Z,6.68
2022-08-26T01:27:59.938Z,5.55
2022-08-26T01:30:29.067Z,6.38
2022-08-26T01:32:59.055Z,5.38
2022-08-26T01:35:27.154Z,4.35
2022-08-26T01:37:57.646Z,4.45
2022-08-26T01:40:32.100Z,6.22
2022-08-26T01:43:03.890Z,5.78
2022-08-26T01:48:09.074Z,5.68
2022-08-26T01:50:39.419Z,4.13
2022-08-26T01:53:11.966Z,4.30
2022-08-26T01:55:43.343Z,5.57
2022-08-26T01:58:17.625Z,4.90
2022-08-26T02:00:46.911Z,5.00
2022-08-26T02:03:17.662Z,4.80
2022-08-26T02:05:48.750Z,5.50
2022-08-26T02:08:24.714Z,4.90
2022-08-26T02:10:54.563Z,5.82
2022-08-26T02:13:31.361Z,5.80
2022-08-26T02:16:00.660Z,5.07
2022-08-26T02:18:30.352Z,6.75
2022-08-26T02:20:58.575Z,7.32
2022-08-26T02:23:28.111Z,9.57
2022-08-26T02:26:03.405Z,5.00
2022-08-26T02:28:39.914Z,5.00
2022-08-26T02:31:08.546Z,6.18
2022-08-26T02:33:38.207Z,6.82
2022-08-26T02:36:12.057Z,5.68
2022-08-26T02:38:43.177Z,5.82
2022-08-26T02:41:13.363Z,5.10
2022-08-26T02:43:50.669Z,5.53
2022-08-26T02:46:51.956Z,5.50
2022-08-26T02:49:31.776Z,5.82
2022-08-26T02:52:02.142Z,4.78
2022-08-26T02:54:40.727Z,6.53
2022-08-26T02:57:25.508Z,6.85
2022-08-26T03:00:05.466Z,5.85
2022-08-26T03:02:54.222Z,6.43
2022-08-26T03:05:28.387Z,14.57
2022-08-26T03:08:31.607Z,5.32
2022-08-26T03:11:01.529Z,6.47
2022-08-26T03:13:29.942Z,5.70
2022-08-26T03:16:02.087Z,7.93
2022-08-26T03:18:38.991Z,8.25
2022-08-26T03:21:09.224Z,6.20
2022-08-26T03:23:37.451Z,5.45
2022-08-26T03:26:11.022Z,6.95
2022-08-26T03:28:59.584Z,5.63
2022-08-26T03:31:26.649Z,6.40
2022-08-26T03:33:59.584Z,9.70
2022-08-26T03:36:28.402Z,6.57
2022-08-26T03:38:58.566Z,10.05
2022-08-26T03:41:29.673Z,7.88
2022-08-26T03:44:01.737Z,6.32
2022-08-26T03:48:59.536Z,6.25
2022-08-26T03:51:31.735Z,7.00
2022-08-26T03:54:03.093Z,8.85
2022-08-26T03:56:33.561Z,7.93
2022-08-26T03:59:02.321Z,8.50
2022-08-26T04:01:44.318Z,13.38
2022-08-26T04:04:17.666Z,7.25
2022-08-26T04:06:58.480Z,8.15
2022-08-26T04:09:30.292Z,7.85
2022-08-26T04:12:05.635Z,9.38
2022-08-26T04:14:37.770Z,9.95
2022-08-26T04:17:15.874Z,6.53
2022-08-26T04:19:49.740Z,9.85
2022-08-26T04:22:25.250Z,8.55
2022-08-26T04:24:59.959Z,9.55
2022-08-26T04:27:29.392Z,9.23
2022-08-26T04:30:09.682Z,6.32
2022-08-26T04:32:38.847Z,7.05
2022-08-26T04:37:38.390Z,10.27
2022-08-26T04:40:10.095Z,9.23
2022-08-26T04:42:42.179Z,8.98
2022-08-26T04:47:39.854Z,7.20
2022-08-26T04:50:09.639Z,8.50
2022-08-26T04:52:58.363Z,6.30
2022-08-26T04:55:42.858Z,13.20
2022-08-26T04:58:19.815Z,9.63
2022-08-26T05:00:56.936Z,9.75
2022-08-26T05:03:56.026Z,9.60
2022-08-26T05:06:38.476Z,7.18
2022-08-26T05:11:45.645Z,6.55
2022-08-26T05:14:27.043Z,9.93
2022-08-26T05:17:02.756Z,6.60
2022-08-26T05:19:42.828Z,8.73
2022-08-26T05:22:28.945Z,8.40
2022-08-26T05:24:56.933Z,7.82
2022-08-26T05:27:29.898Z,7.65
2022-08-26T05:30:18.111Z,6.30
2022-08-26T05:32:55.149Z,5.97
2022-08-26T05:35:23.374Z,7.63
2022-08-26T05:38:14.396Z,8.10
2022-08-26T05:40:45.740Z,6.65
2022-08-26T05:43:16.477Z,10.38
2022-08-26T05:45:54.463Z,7.40
2022-08-26T05:48:28.785Z,8.82
2022-08-26T05:50:58.025Z,6.95
2022-08-26T05:53:54.537Z,8.32
2022-08-26T05:56:33.138Z,9.13
2022-08-26T05:59:14.590Z,7.07
2022-08-26T06:01:45.690Z,8.33
2022-08-26T06:04:15.285Z,7.75
2022-08-26T06:06:43.263Z,8.05
2022-08-26T06:09:17.471Z,7.82
2022-08-26T06:11:46.537Z,14.10
2022-08-26T06:14:14.576Z,6.38
2022-08-26T06:16:45.185Z,9.57
2022-08-26T06:19:16.330Z,8.10
2022-08-26T06:21:51.345Z,6.80
2022-08-26T06:24:40.295Z,8.75
2022-08-26T06:27:13.843Z,7.15
2022-08-26T06:29:45.882Z,7.47
2022-08-26T06:32:15.726Z,6.57
2022-08-26T06:34:43.618Z,7.20
2022-08-26T06:37:14.224Z,6.63
2022-08-26T06:39:42.328Z,7.57
2022-08-26T06:42:11.784Z,8.48
2022-08-26T06:44:41.656Z,7.00
2022-08-26T06:47:12.874Z,7.30
2022-08-26T06:49:42.503Z,7.75
2022-08-26T06:52:13.957Z,6.97
2022-08-26T06:54:47.938Z,10.02
2022-08-26T06:57:17.866Z,6.53
2022-08-26T06:59:46.065Z,7.72
2022-08-26T07:05:16.025Z,10.13
2022-08-26T07:07:43.992Z,8.40
2022-08-26T07:10:14.086Z,12.20
2022-08-26T07:12:41.894Z,6.03
2022-08-26T07:15:15.270Z,6.18
2022-08-26T07:17:43.149Z,7.75
2022-08-26T07:20:13.696Z,4.50
2022-08-26T07:22:41.616Z,7.57
2022-08-26T07:25:11.468Z,6.45
2022-08-26T07:27:39.609Z,6.57
2022-08-26T07:30:14.759Z,7.00
2022-08-26T07:32:44.763Z,6.53
2022-08-26T07:35:17.094Z,6.82
2022-08-26T07:37:45.175Z,7.00
2022-08-26T07:40:13.137Z,7.03
2022-08-26T07:42:45.971Z,6.68
2022-08-26T07:45:17.076Z,11.07
2022-08-26T07:47:44.994Z,8.88
2022-08-26T07:50:19.374Z,4.88
2022-08-26T07:52:47.538Z,5.57
2022-08-26T07:55:16.140Z,5.97
2022-08-26T07:57:46.753Z,7.43
2022-08-26T08:00:17.980Z,4.43
2022-08-26T08:02:46.271Z,6.32
2022-08-26T08:05:17.854Z,5.53
2022-08-26T08:07:53.535Z,5.15
2022-08-26T08:10:29.929Z,4.75
2022-08-26T08:13:00.105Z,4.22
2022-08-26T08:15:32.063Z,7.07
2022-08-26T08:18:00.987Z,6.28
2022-08-26T08:20:30.254Z,5.13
2022-08-26T08:22:58.852Z,7.80
2022-08-26T08:25:27.247Z,5.50
2022-08-26T08:27:56.902Z,5.53
2022-08-26T08:30:24.787Z,4.50
2022-08-26T08:32:53.169Z,6.25
2022-08-26T08:35:22.775Z,4.63
2022-08-26T08:37:55.582Z,5.65
2022-08-26T08:40:27.750Z,5.93
2022-08-26T08:43:00.640Z,5.47
2022-08-26T08:45:36.749Z,8.10
2022-08-26T08:48:07.723Z,5.22
2022-08-26T08:50:38.284Z,7.60
2022-08-26T08:53:19.143Z,5.15
2022-08-26T08:56:02.256Z,6.35
2022-08-26T08:58:44.507Z,7.10
2022-08-26T09:01:22.961Z,6.45
2022-08-26T09:03:59.763Z,8.63
2022-08-26T09:06:29.409Z,6.38
2022-08-26T09:09:01.606Z,10.52
2022-08-26T09:11:34.537Z,9.48
2022-08-26T09:14:02.951Z,8.02
2022-08-26T09:16:41.234Z,7.82
2022-08-26T09:19:19.227Z,6.88
2022-08-26T09:21:56.802Z,8.40
2022-08-26T09:24:28.533Z,5.78
2022-08-26T09:26:59.131Z,9.93
2022-08-26T09:29:33.962Z,7.60
2022-08-26T09:32:20.450Z,10.73
2022-08-26T09:34:57.967Z,7.72
2022-08-26T09:37:38.072Z,7.47
2022-08-26T09:40:29.554Z,7.57
2022-08-26T09:43:10.658Z,7.15
2022-08-26T09:45:40.522Z,9.10
2022-08-26T09:48:36.202Z,8.98
2022-08-26T09:51:07.058Z,6.68
2022-08-26T09:53:38.630Z,6.85
2022-08-26T09:56:17.238Z,11.90
2022-08-26T09:58:47.155Z,6.57
2022-08-26T10:01:34.911Z,6.55
2022-08-26T10:04:07.353Z,6.65
2022-08-26T10:06:40.175Z,5.43
2022-08-26T10:09:13.730Z,5.47
2022-08-26T10:11:47.814Z,8.02
2022-08-26T10:14:22.051Z,7.80
2022-08-26T10:16:56.482Z,8.63
2022-08-26T10:19:41.755Z,6.47
2022-08-26T10:22:26.792Z,5.35
2022-08-26T10:24:58.837Z,7.82
2022-08-26T10:27:35.425Z,7.30
2022-08-26T10:30:08.012Z,5.63
2022-08-26T10:32:41.545Z,8.48
2022-08-26T10:35:13.289Z,5.80
2022-08-26T10:40:20.772Z,5.55
2022-08-26T10:42:56.652Z,7.72
2022-08-26T10:45:27.608Z,6.38
2022-08-26T10:48:01.538Z,5.07
2022-08-26T10:50:34.299Z,6.43
2022-08-26T10:53:07.496Z,6.30
2022-08-26T10:55:41.924Z,5.00
2022-08-26T10:58:32.240Z,5.70
2022-08-26T11:01:28.985Z,6.13
2022-08-26T11:04:05.800Z,7.93
2022-08-26T11:06:33.688Z,7.90
2022-08-26T11:09:06.782Z,6.43
2022-08-26T11:11:50.950Z,4.65
2022-08-26T11:14:53.522Z,8.80
2022-08-26T11:17:58.367Z,6.20
2022-08-26T11:20:42.020Z,6.68
2022-08-26T11:23:38.707Z,5.85
2022-08-26T11:26:35.490Z,5.10
2022-08-26T11:29:04.450Z,4.68
2022-08-26T11:31:57.678Z,4.60
2022-08-26T11:34:56.373Z,5.97
2022-08-26T11:37:30.708Z,5.90
2022-08-26T11:40:02.917Z,5.75
2022-08-26T11:42:40.942Z,6.85
2022-08-26T11:45:18.536Z,4.95
2022-08-26T11:47:49.454Z,4.55
2022-08-26T11:50:20.728Z,4.68
2022-08-26T11:52:56.712Z,7.00
2022-08-26T11:55:25.108Z,5.30
2022-08-26T11:57:55.788Z,4.90
2022-08-26T12:00:26.475Z,4.70
2022-08-26T12:02:56.008Z,5.10
2022-08-26T12:05:29.587Z,5.07
2022-08-26T12:08:02.366Z,4.68
2022-08-26T12:10:33.636Z,4.55
2022-08-26T12:15:32.678Z,6.05
2022-08-26T12:18:18.408Z,4.53
2022-08-26T12:20:57.410Z,10.50
2022-08-26T12:23:27.159Z,8.52
2022-08-26T12:26:05.267Z,4.13
2022-08-26T12:28:34.437Z,3.80
2022-08-26T12:31:05.125Z,4.18
2022-08-26T12:33:36.367Z,4.20
2022-08-26T12:36:05.771Z,7.30
2022-08-26T12:38:36.824Z,6.38
2022-08-26T12:41:05.026Z,4.80
2022-08-26T12:43:45.978Z,6.45
2022-08-26T12:46:18.049Z,5.80
2022-08-26T12:48:50.572Z,4.55
2022-08-26T12:51:24.550Z,6.32
2022-08-26T12:53:53.288Z,4.40
2022-08-26T12:56:30.291Z,7.18
2022-08-26T12:59:07.033Z,7.13
2022-08-26T13:01:43.995Z,5.05
2022-08-26T13:04:36.622Z,9.73
2022-08-26T13:07:15.959Z,6.97
2022-08-26T13:09:43.917Z,6.55
2022-08-26T13:12:12.695Z,6.38
2022-08-26T13:14:40.976Z,4.22
2022-08-26T13:17:09.041Z,6.72
2022-08-26T13:19:38.122Z,7.80
2022-08-26T13:22:07.550Z,6.10
2022-08-26T13:24:44.046Z,4.80
2022-08-26T13:27:15.476Z,5.75
2022-08-26T13:32:14.021Z,6.20
2022-08-26T13:34:51.048Z,6.38
2022-08-26T13:37:22.210Z,6.57
2022-08-26T13:40:04.622Z,3.47
2022-08-26T13:42:32.538Z,6.22
2022-08-26T13:45:05.169Z,7.38
2022-08-26T13:47:33.189Z,4.65
2022-08-26T13:50:02.427Z,8.05
2022-08-26T13:52:35.590Z,7.22
2022-08-26T13:55:04.788Z,5.47
2022-08-26T13:57:35.783Z,10.95
2022-08-26T14:00:04.139Z,11.13
2022-08-26T14:02:33.672Z,10.90
2022-08-26T14:05:05.857Z,7.82
2022-08-26T14:07:33.559Z,6.30
2022-08-26T14:10:01.517Z,8.93
2022-08-26T14:12:29.285Z,5.65
2022-08-26T14:14:57.126Z,5.10
2022-08-26T14:17:26.292Z,4.80
2022-08-26T14:19:57.919Z,6.28
2022-08-26T14:22:27.124Z,6.82
2022-08-26T14:24:57.439Z,8.52
2022-08-26T14:27:27.854Z,8.75
2022-08-26T14:29:55.751Z,8.07
2022-08-26T14:32:26.927Z,7.53
2022-08-26T14:34:55.693Z,7.55
2022-08-26T14:37:23.506Z,9.30
2022-08-26T14:39:52.812Z,8.10
2022-08-26T14:42:24.080Z,9.20
2022-08-26T14:44:55.386Z,10.35
2022-08-26T14:47:23.309Z,12.70
2022-08-26T14:49:51.450Z,10.23
2022-08-26T14:52:19.605Z,12.98
2022-08-26T14:54:46.376Z,9.93
2022-08-26T14:57:15.934Z,8.50
2022-08-26T14:59:50.145Z,7.50
2022-08-26T15:02:32.313Z,8.57
2022-08-26T15:05:02.057Z,7.30
2022-08-26T15:07:30.013Z,7.57
2022-08-26T15:09:57.725Z,7.07
2022-08-26T15:12:27.733Z,5.68
2022-08-26T15:14:55.413Z,5.57
2022-08-26T15:17:23.347Z,6.25
2022-08-26T15:19:51.599Z,9.35
2022-08-26T15:22:19.502Z,7.43
2022-08-26T15:24:47.240Z,5.82
2022-08-26T15:27:19.529Z,4.53
2022-08-26T15:29:48.717Z,4.97
2022-08-26T15:32:16.516Z,5.32
2022-08-26T15:34:44.389Z,6.18
2022-08-26T15:37:12.518Z,5.15
2022-08-26T15:39:40.731Z,5.18
2022-08-26T15:42:08.636Z,5.35
2022-08-26T15:44:36.788Z,6.28
2022-08-26T15:47:19.778Z,10.50
2022-08-26T15:49:47.713Z,4.50
2022-08-26T15:52:17.249Z,4.60
2022-08-26T15:54:45.437Z,6.85
2022-08-26T15:57:15.368Z,6.05
2022-08-26T15:59:44.273Z,5.10
2022-08-26T16:02:13.461Z,7.93
2022-08-26T16:04:41.800Z,4.10
2022-08-26T16:07:11.317Z,4.80
2022-08-26T16:09:39.161Z,3.88
2022-08-26T16:12:07.130Z,6.47
2022-08-26T16:14:36.991Z,5.60
2022-08-26T16:17:04.794Z,5.45
2022-08-26T16:19:34.034Z,7.63
2022-08-26T16:22:01.793Z,5.45
2022-08-26T16:24:30.684Z,8.27
2022-08-26T16:26:58.507Z,6.03
2022-08-26T16:29:26.222Z,6.75
2022-08-26T16:31:54.650Z,7.60
2022-08-26T16:34:22.642Z,6.28
2022-08-26T16:36:51.985Z,7.05
2022-08-26T16:39:19.677Z,8.48
2022-08-26T16:41:47.339Z,10.38
2022-08-26T16:44:15.030Z,6.97
2022-08-26T16:46:42.803Z,9.95
2022-08-26T16:49:10.580Z,9.18
2022-08-26T16:51:38.613Z,6.68
2022-08-26T16:54:09.009Z,6.40
2022-08-26T16:56:37.476Z,7.30
2022-08-26T16:59:07.924Z,7.88
2022-08-26T17:01:40.808Z,6.47
2022-08-26T17:04:08.680Z,7.35
2022-08-26T17:06:36.831Z,6.10
2022-08-26T17:09:04.825Z,6.43
2022-08-26T17:11:34.433Z,7.00
2022-08-26T17:14:02.898Z,8.27
2022-08-26T17:16:30.846Z,5.93
2022-08-26T17:19:00.132Z,6.13
2022-08-26T17:21:29.389Z,6.03
2022-08-26T17:23:57.354Z,5.70
2022-08-26T17:26:27.815Z,5.72
2022-08-26T17:28:57.007Z,9.20
2022-08-26T17:31:25.370Z,7.10
2022-08-26T17:33:54.268Z,6.80
2022-08-26T17:36:23.336Z,6.03
2022-08-26T17:38:56.737Z,8.25
2022-08-26T17:41:24.776Z,6.30
2022-08-26T17:43:55.623Z,6.50
2022-08-26T17:46:44.793Z,6.35
2022-08-26T17:49:12.764Z,9.02
2022-08-26T17:51:49.674Z,6.30
2022-08-26T17:54:27.235Z,7.05
2022-08-26T17:56:58.303Z,6.05
2022-08-26T17:59:30.477Z,7.78
2022-08-26T18:01:59.971Z,9.00
2022-08-26T18:04:28.048Z,9.77
2022-08-26T18:06:55.814Z,5.50
2022-08-26T18:09:23.548Z,7.88
2022-08-26T18:11:51.204Z,7.95
2022-08-26T18:14:18.935Z,6.40
2022-08-26T18:16:46.868Z,7.32
2022-08-26T18:19:15.937Z,11.82
2022-08-26T18:21:46.313Z,8.90
2022-08-26T18:24:14.382Z,8.88
2022-08-26T18:26:47.895Z,10.55
2022-08-26T18:29:17.061Z,9.82
2022-08-26T18:31:45.096Z,9.60
2022-08-26T18:34:16.911Z,9.40
2022-08-26T18:36:46.180Z,13.75
2022-08-26T18:39:15.269Z,10.20
2022-08-26T18:41:46.280Z,13.30
2022-08-26T18:44:15.494Z,11.45
2022-08-26T18:46:44.401Z,12.35
2022-08-26T18:49:13.706Z,50.10
2022-08-26T18:51:42.153Z,12.32
2022-08-26T18:54:11.996Z,13.10
2022-08-26T18:56:42.306Z,10.82
2022-08-26T18:59:10.704Z,10.85
2022-08-26T19:01:40.850Z,10.30
2022-08-26T19:04:14.747Z,10.98
2022-08-26T19:06:47.560Z,13.80
2022-08-26T19:09:17.852Z,12.23
2022-08-26T19:11:47.054Z,11.43
2022-08-26T19:14:18.269Z,9.88
2022-08-26T19:16:48.075Z,11.15
2022-08-26T19:19:16.134Z,11.55
2022-08-26T19:21:44.373Z,10.13
2022-08-26T19:24:15.508Z,12.45
2022-08-26T19:26:46.293Z,10.80
2022-08-26T19:29:15.385Z,11.82
2022-08-26T19:31:44.147Z,11.05
2022-08-26T19:34:16.144Z,12.10
2022-08-26T19:36:48.315Z,14.55
2022-08-26T19:39:16.035Z,12.27
2022-08-26T19:41:45.109Z,13.20
2022-08-26T19:44:34.956Z,11.48
2022-08-26T19:47:03.551Z,13.40
2022-08-26T19:49:31.408Z,16.23
2022-08-26T19:52:01.165Z,14.15
2022-08-26T19:54:29.068Z,11.95
2022-08-26T19:57:04.604Z,13.88
2022-08-26T19:59:33.088Z,13.00
2022-08-26T20:02:01.948Z,12.38
2022-08-26T20:04:31.356Z,12.85
2022-08-26T20:07:00.696Z,12.45
2022-08-26T20:09:29.014Z,13.23
2022-08-26T20:11:59.569Z,12.00
2022-08-26T20:14:28.466Z,13.07
2022-08-26T20:16:56.544Z,14.25
2022-08-26T20:19:42.127Z,9.77
2022-08-26T20:22:10.235Z,11.13
2022-08-26T20:24:38.026Z,11.48
2022-08-26T20:27:08.148Z,11.05
2022-08-26T20:29:37.415Z,13.98
2022-08-26T20:32:06.171Z,12.05
2022-08-26T20:34:34.746Z,11.65
2022-08-26T20:37:03.320Z,10.77
2022-08-26T20:39:31.353Z,12.77
2022-08-26T20:41:59.178Z,13.75
2022-08-26T20:44:28.463Z,10.48
2022-08-26T20:46:56.616Z,12.60
2022-08-26T20:49:24.426Z,12.98
2022-08-26T20:51:53.084Z,12.88
2022-08-26T20:54:26.278Z,12.88
2022-08-26T20:56:56.925Z,13.32
2022-08-26T20:59:26.691Z,12.70
2022-08-26T21:01:56.319Z,12.65
2022-08-26T21:04:26.829Z,16.13
2022-08-26T21:06:55.427Z,12.32
2022-08-26T21:09:24.872Z,12.65
2022-08-26T21:11:54.663Z,10.45
2022-08-26T21:14:23.272Z,11.30
2022-08-26T21:16:55.628Z,15.15
2022-08-26T21:19:23.518Z,9.23
2022-08-26T21:21:51.659Z,7.95
2022-08-26T21:24:19.598Z,8.57
2022-08-26T21:26:48.041Z,7.72
2022-08-26T21:29:16.246Z,8.75
2022-08-26T21:31:46.901Z,7.45
2022-08-26T21:34:18.527Z,7.60
2022-08-26T21:36:46.759Z,10.00
2022-08-26T21:39:15.217Z,10.68
2022-08-26T21:41:44.547Z,6.55
2022-08-26T21:44:13.842Z,6.60
2022-08-26T21:46:42.634Z,9.88
2022-08-26T21:49:13.458Z,10.10
2022-08-26T21:51:46.622Z,8.13
2022-08-26T21:54:15.212Z,7.72
2022-08-26T21:56:46.552Z,11.10
2022-08-26T21:59:15.969Z,7.83
2022-08-26T22:01:43.791Z,7.47
2022-08-26T22:04:13.294Z,7.57
2022-08-26T22:06:44.965Z,7.65
2022-08-26T22:09:15.072Z,7.47
2022-08-26T22:11:43.429Z,7.15
2022-08-26T22:14:11.882Z,7.40
2022-08-26T22:16:39.823Z,9.35
2022-08-26T22:19:08.032Z,7.53
2022-08-26T22:21:45.249Z,7.75
2022-08-26T22:24:13.450Z,6.88
2022-08-26T22:26:41.650Z,7.72
2022-08-26T22:29:09.692Z,7.38
2022-08-26T22:31:38.798Z,7.63
2022-08-26T22:34:08.937Z,8.45
2022-08-26T22:36:43.994Z,9.32
2022-08-26T22:39:15.183Z,9.20
2022-08-26T22:41:44.108Z,8.35
2022-08-26T22:44:12.720Z,8.43
2022-08-26T22:46:41.961Z,9.32
2022-08-26T22:49:12.517Z,11.05
2022-08-26T22:51:40.522Z,9.13
2022-08-26T22:54:08.687Z,10.68
2022-08-26T22:56:38.513Z,10.68
2022-08-26T22:59:07.870Z,18.55
2022-08-26T23:01:37.734Z,18.23
2022-08-26T23:04:07.286Z,24.52
2022-08-26T23:06:38.636Z,44.80
2022-08-26T23:09:07.223Z,77.60
2022-08-26T23:11:35.542Z,46.67
2022-08-26T23:14:06.269Z,68.50
2022-08-26T23:16:39.398Z,34.38
2022-08-26T23:19:08.492Z,23.77
2022-08-26T23:21:36.322Z,25.15
2022-08-26T23:24:04.684Z,21.55
2022-08-26T23:26:35.720Z,18.92
2022-08-26T23:29:05.478Z,16.00
2022-08-26T23:31:33.944Z,17.48
2022-08-26T23:34:19.446Z,18.30
2022-08-26T23:36:47.209Z,15.95
2022-08-26T23:39:15.070Z,19.80
2022-08-26T23:41:43.602Z,20.67
2022-08-26T23:44:14.955Z,16.10
2022-08-26T23:46:42.769Z,19.73
2022-08-26T23:49:13.144Z,22.88
2022-08-26T23:51:58.312Z,22.67
2022-08-26T23:54:26.376Z,22.08
2022-08-26T23:56:54.463Z,18.73
2022-08-26T23:59:23.782Z,23.27
